Impacts METAR Board
IDs:

KDAB - Daytona Beach Intl, FL, US

Updated at: 0100 UTC 12 May 2021
Potential Impact None Slight Moderate High
Time 11/13Z 11/14Z 11/15Z 11/16Z 11/17Z 11/18Z 11/19Z 11/20Z 11/21Z 11/22Z 11/23Z 12/00Z 12/01Z
Temp77 79 81 84 85 83 77 78 78 75 75 74 73
Dewpt70 70 70 70 69 70 72 72 71 70 71 71 71
Altim30.09 30.11 30.11 30.10 30.08 30.06 30.06 30.06 30.05 30.07 30.05 30.05 30.05
VIS10 10 10 10 10 10 9 10 10 10 4 10 10
CIG200 120 120 150 250 150 30 150 150 150 150 150 150
CoverBKNBKNBKNBKNBKNBKNBKNBKNOVCOVCOVCBKNBKN
FltCatVFRVFRVFRVFRVFRVFRMVFRVFRVFRVFRMVFRVFRVFR
WX--------------TSTSTSRA BR----
WDir02702800070150507001000
WSpd0 3 4 0 0 9 4 4 4 0 3 0 0
WGst-- -- -- -- -- -- -- -- -- -- -- -- --
Raw hourly METARs
KDAB 111253Z 00000KT 10SM SCT120 BKN200 25/21 A3009 RMK AO2 SLP189 T02500211
KDAB 111353Z 27003KT 10SM BKN120 BKN200 26/21 A3011 RMK AO2 SLP195 T02610211
KDAB 111453Z 28004KT 10SM BKN120 27/21 A3011 RMK AO2 SLP194 T02720211 50007
KDAB 111553Z 00000KT 10SM FEW035 BKN150 29/21 A3010 RMK AO2 SLP193 T02890211
KDAB 111653Z 00000KT 10SM FEW040 SCT150 BKN250 29/21 A3008 RMK AO2 SLP185 T02940206
KDAB 111753Z 07009KT 10SM SCT030CB BKN150 BKN250 28/21 A3006 RMK AO2 SLP179 CB OHD-W MOV E T02830211 10300 20233 58015
KDAB 111853Z 15004KT 9SM FEW020 BKN030CB BKN150 25/22 A3006 RMK AO2 LTG DSNT W RAB02E36 SLP177 CB ALQDS MOV E P0009 T02500222
KDAB 111953Z 05004KT 10SM TS FEW025 SCT040CB BKN150 26/22 A3006 RMK AO2 LTG DSNT SW-N RAB1854E30 TSE13B14 SLP177 OCNL LTGCG SW-NW-N TS SW-NW-N MOV E P0003 T02560222
KDAB 112053Z 07004KT 10SM TS FEW025 SCT040CB OVC150 26/22 A3005 RMK AO2 LTG DSNT ALQDS TSE20B48 SLP175 FRQ LTGIC SE-SW-W TS SE-SW-W MOV E CB DSNT ALQDS 60012 T02560217 56005
KDAB 112153Z 00000KT 10SM TS SCT040CB SCT070 OVC150 24/21 A3007 RMK AO2 LTG DSNT ALQDS RAB10E48 SLP182 FRQ LTGIC E W-N TS E W-N MOV E P0000 T02390211
KDAB 112253Z 01003KT 4SM RA BR FEW040 FEW070 OVC150 24/22 A3005 RMK AO2 RAB21 TSE49 SLP176 TS DSIPTD P0003 T02390217
KDAB 112353Z 00000KT 10SM FEW040 SCT070 BKN150 23/22 A3005 RMK AO2 RAE17 SLP176 P0002 60017 T02330217 10283 20233 51002
KDAB 120053Z 00000KT 10SM FEW070 BKN150 23/22 A3005 RMK AO2 SLP174 T02280217



Page loaded:  01:06 UTC  |   06:06 PM Pacific  |   07:06 PM Mountain  |   08:06 PM Central  |   09:06 PM Eastern

 

ADVISORIES

FORECASTS

FORECASTS

OBSERVATIONS

USER TOOLS

ABOUT US